Time;durP1;ratioP1;P1;durP2;ratioP2;P2;SDS_P1;SDS_P2;PMS_P1;PMS_P2;Temp;Humidity;BMP_temperature;BMP_pressure;BME280_temperature;BME280_humidity;BME280_pressure;Samples;Min_cycle;Max_cycle;Signal;HPM_P1;HPM_P2
2022/08/18 00:02:25;;;;;;;42.65;6.30;;;;;;;;;;4262166;33;20220;-63
2022/08/18 00:36:05;;;;;;;12.63;4.00;;;;;;;;;;4254843;28;21272;-63
2022/08/18 00:38:31;;;;;;;9.80;3.50;;;;;;;;;;4241117;33;20192;-63
2022/08/18 00:40:57;;;;;;;16.62;3.58;;;;;;;;;;4247374;33;20093;-71
2022/08/18 00:43:35;;;;;;;21.70;3.62;;;;;;;;;;4247599;33;20129;-71
2022/08/18 00:46:01;;;;;;;28.77;4.87;;;;;;;;;;4247611;33;20124;-63
2022/08/18 00:48:27;;;;;;;22.08;4.57;;;;;;;;;;4234534;33;20123;-63
2022/08/18 00:50:59;;;;;;;24.70;6.22;;;;;;;;;;4247608;33;20116;-63
2022/08/18 00:53:59;;;;;;;32.53;5.32;;;;;;;;;;4234506;33;20101;-63
2022/08/18 00:56:30;;;;;;;21.50;5.03;;;;;;;;;;4216340;33;20125;-63
2022/08/18 00:59:05;;;;;;;24.33;5.03;;;;;;;;;;4237008;33;20145;-63
2022/08/18 01:01:32;;;;;;;21.52;4.03;;;;;;;;;;4233421;33;20207;-62
2022/08/18 01:04:06;;;;;;;25.67;4.35;;;;;;;;;;4220277;33;20539;-63
2022/08/18 01:06:42;;;;;;;18.70;4.28;;;;;;;;;;4231783;33;20121;-64
2022/08/18 01:09:10;;;;;;;16.70;3.62;;;;;;;;;;4232078;33;20093;-64
2022/08/18 01:11:37;;;;;;;12.43;4.28;;;;;;;;;;4244689;33;20110;-64
2022/08/18 01:14:08;;;;;;;6.47;3.28;;;;;;;;;;4247271;33;20139;-63
2022/08/18 01:22:48;;;;;;;6.43;3.05;;;;;;;;;;4216587;33;20105;-63
2022/08/18 01:28:02;;;;;;;5.62;3.05;;;;;;;;;;4222086;33;20639;-64
2022/08/18 01:30:29;;;;;;;10.55;3.85;;;;;;;;;;4233067;33;20121;-64
2022/08/18 01:32:57;;;;;;;13.05;5.95;;;;;;;;;;4232983;33;20117;-64
2022/08/18 01:35:25;;;;;;;11.98;7.60;;;;;;;;;;4232858;33;20090;-64
2022/08/18 01:37:55;;;;;;;15.85;9.82;;;;;;;;;;4241722;33;20120;-64
2022/08/18 01:40:22;;;;;;;15.13;7.75;;;;;;;;;;4247253;33;20512;-64
2022/08/18 01:42:49;;;;;;;19.90;7.10;;;;;;;;;;4246876;33;20132;-64
2022/08/18 01:45:16;;;;;;;18.55;6.78;;;;;;;;;;4246919;33;20530;-64
2022/08/18 01:47:43;;;;;;;10.50;4.35;;;;;;;;;;4247155;33;20131;-64
2022/08/18 01:50:11;;;;;;;12.60;4.30;;;;;;;;;;4245975;33;20124;-64
2022/08/18 01:52:37;;;;;;;8.68;3.92;;;;;;;;;;4246976;33;20952;-63
2022/08/18 01:55:06;;;;;;;6.30;3.55;;;;;;;;;;4247087;33;20596;-65
2022/08/18 01:57:32;;;;;;;9.05;3.22;;;;;;;;;;4246766;33;20446;-64
2022/08/18 01:59:59;;;;;;;7.80;4.40;;;;;;;;;;4246475;33;20136;-64
2022/08/18 02:02:28;;;;;;;8.43;3.58;;;;;;;;;;4246865;33;20093;-64
2022/08/18 02:05:00;;;;;;;8.05;4.15;;;;;;;;;;4246141;33;20540;-64
2022/08/18 02:07:26;;;;;;;5.18;3.70;;;;;;;;;;4233927;33;20148;-64
2022/08/18 02:09:52;;;;;;;7.43;3.35;;;;;;;;;;4246731;33;20217;-64
2022/08/18 02:12:19;;;;;;;10.25;3.08;;;;;;;;;;4246665;33;20445;-64
2022/08/18 02:14:45;;;;;;;4.70;3.15;;;;;;;;;;4233512;33;20462;-62
2022/08/18 02:17:12;;;;;;;6.93;2.95;;;;;;;;;;4246757;33;20584;-62
2022/08/18 02:19:43;;;;;;;5.97;4.03;;;;;;;;;;4247027;33;20204;-62
2022/08/18 02:22:12;;;;;;;8.63;2.92;;;;;;;;;;4246726;33;20107;-62
2022/08/18 02:24:38;;;;;;;6.80;3.30;;;;;;;;;;4233711;33;20199;-62
2022/08/18 02:27:05;;;;;;;7.60;3.40;;;;;;;;;;4246670;33;20099;-62
2022/08/18 02:29:31;;;;;;;7.82;4.45;;;;;;;;;;4246748;33;20518;-62
2022/08/18 02:31:57;;;;;;;8.00;3.25;;;;;;;;;;4245590;33;20127;-62
2022/08/18 02:34:24;;;;;;;5.62;3.65;;;;;;;;;;4246818;33;20092;-62
2022/08/18 02:36:50;;;;;;;7.78;3.55;;;;;;;;;;4246585;33;20093;-62
2022/08/18 02:39:16;;;;;;;5.57;3.50;;;;;;;;;;4246593;33;20648;-62
2022/08/18 02:41:43;;;;;;;9.90;4.40;;;;;;;;;;4246475;33;20132;-63
2022/08/18 02:44:09;;;;;;;7.03;3.40;;;;;;;;;;4246467;33;20651;-62
2022/08/18 02:46:35;;;;;;;7.95;4.05;;;;;;;;;;4246290;33;20100;-62
2022/08/18 02:49:01;;;;;;;6.55;3.62;;;;;;;;;;4233268;33;20122;-70
2022/08/18 02:51:28;;;;;;;16.50;3.40;;;;;;;;;;4244629;33;20117;-70
2022/08/18 02:53:54;;;;;;;4.57;3.03;;;;;;;;;;4219122;33;20105;-70
2022/08/18 02:56:28;;;;;;;9.20;3.55;;;;;;;;;;4207990;33;20140;-69
2022/08/18 02:59:00;;;;;;;5.97;3.67;;;;;;;;;;4231221;33;20132;-70
2022/08/18 03:01:28;;;;;;;7.47;3.35;;;;;;;;;;4232288;33;20203;-70
2022/08/18 03:03:56;;;;;;;10.98;3.37;;;;;;;;;;4231002;33;20131;-71
2022/08/18 03:06:23;;;;;;;7.57;3.40;;;;;;;;;;4232388;33;20120;-71
2022/08/18 03:08:50;;;;;;;10.95;3.28;;;;;;;;;;4233820;33;20136;-71
2022/08/18 03:11:22;;;;;;;8.68;3.20;;;;;;;;;;4245142;33;20465;-71
2022/08/18 03:13:48;;;;;;;6.95;2.90;;;;;;;;;;4210139;33;20203;-71
2022/08/18 03:16:15;;;;;;;8.70;3.20;;;;;;;;;;4246553;33;20098;-71
2022/08/18 03:18:42;;;;;;;8.65;2.75;;;;;;;;;;4233041;33;20147;-71
2022/08/18 03:21:17;;;;;;;8.18;2.90;;;;;;;;;;4246214;33;20088;-71
2022/08/18 03:23:43;;;;;;;6.47;2.53;;;;;;;;;;4244686;33;20112;-71
2022/08/18 03:26:12;;;;;;;5.82;2.83;;;;;;;;;;4246137;33;20112;-72
2022/08/18 03:28:43;;;;;;;8.57;2.62;;;;;;;;;;4233221;33;20495;-71
2022/08/18 03:31:10;;;;;;;7.90;3.17;;;;;;;;;;4233020;33;20440;-73
2022/08/18 03:33:36;;;;;;;8.43;3.40;;;;;;;;;;4246339;33;20127;-73
2022/08/18 03:36:15;;;;;;;11.00;2.62;;;;;;;;;;4221489;33;20115;-70
2022/08/18 03:38:42;;;;;;;8.60;3.25;;;;;;;;;;4221334;33;20153;-73
2022/08/18 03:41:14;;;;;;;7.40;3.17;;;;;;;;;;4221498;33;20116;-71
2022/08/18 03:43:41;;;;;;;9.05;2.85;;;;;;;;;;4209466;33;20109;-71
2022/08/18 03:46:09;;;;;;;5.62;2.70;;;;;;;;;;4232747;33;20129;-70
2022/08/18 03:48:39;;;;;;;6.57;2.95;;;;;;;;;;4245992;33;20200;-68
2022/08/18 03:51:21;;;;;;;6.93;2.90;;;;;;;;;;4245977;33;20116;-69
2022/08/18 03:53:48;;;;;;;6.43;2.83;;;;;;;;;;4244439;33;20504;-70
2022/08/18 03:56:23;;;;;;;14.02;3.15;;;;;;;;;;4245756;33;20461;-71
2022/08/18 03:58:56;;;;;;;10.18;3.12;;;;;;;;;;4245748;33;20121;-71
2022/08/18 04:01:25;;;;;;;4.43;2.70;;;;;;;;;;4232993;33;20115;-73
2022/08/18 04:03:55;;;;;;;9.32;2.92;;;;;;;;;;4232536;33;20120;-67
2022/08/18 04:06:33;;;;;;;11.93;2.92;;;;;;;;;;4245715;33;20124;-68
2022/08/18 04:09:03;;;;;;;7.90;2.97;;;;;;;;;;4232598;33;20133;-70
2022/08/18 04:11:34;;;;;;;8.07;2.60;;;;;;;;;;4245805;33;20089;-70
2022/08/18 04:14:00;;;;;;;3.22;2.12;;;;;;;;;;4232219;33;20097;-69
2022/08/18 04:16:28;;;;;;;6.62;2.30;;;;;;;;;;4245806;33;20211;-70
2022/08/18 04:18:56;;;;;;;8.25;2.37;;;;;;;;;;4232478;33;20081;-71
2022/08/18 04:21:23;;;;;;;7.15;2.28;;;;;;;;;;4232457;33;20131;-70
2022/08/18 04:23:49;;;;;;;14.10;2.47;;;;;;;;;;4247080;33;20092;-69
2022/08/18 04:26:17;;;;;;;7.00;2.20;;;;;;;;;;4222683;33;20100;-70
2022/08/18 04:28:43;;;;;;;5.22;2.17;;;;;;;;;;4222001;33;20429;-68
2022/08/18 04:31:11;;;;;;;4.78;2.75;;;;;;;;;;4247726;33;20132;-70
2022/08/18 04:33:40;;;;;;;9.10;2.70;;;;;;;;;;4234905;33;20211;-71
2022/08/18 04:36:12;;;;;;;6.37;2.47;;;;;;;;;;4247954;33;20476;-70
2022/08/18 04:38:38;;;;;;;8.85;2.40;;;;;;;;;;4234662;33;20107;-70
2022/08/18 04:41:05;;;;;;;7.20;2.40;;;;;;;;;;4223132;33;20100;-71
2022/08/18 04:43:31;;;;;;;5.85;2.35;;;;;;;;;;4246522;33;20073;-69
2022/08/18 04:46:00;;;;;;;9.18;2.47;;;;;;;;;;4246239;33;20688;-69
2022/08/18 04:48:35;;;;;;;21.65;4.03;;;;;;;;;;4247669;33;20100;-71
2022/08/18 04:51:06;;;;;;;0.90;0.90;;;;;;;;;;4247711;33;20520;-72
2022/08/18 04:53:45;;;;;;;5.43;2.35;;;;;;;;;;4246178;33;20085;-71
2022/08/18 04:56:26;;;;;;;11.35;2.72;;;;;;;;;;4247546;33;20524;-70
2022/08/18 04:58:53;;;;;;;9.68;1.95;;;;;;;;;;4247431;33;20108;-71
2022/08/18 05:01:22;;;;;;;3.50;1.83;;;;;;;;;;4234362;33;20192;-70
2022/08/18 05:03:49;;;;;;;3.97;2.50;;;;;;;;;;4247175;33;20524;-71
2022/08/18 05:06:16;;;;;;;6.87;2.58;;;;;;;;;;4247477;33;20093;-71
2022/08/18 05:08:42;;;;;;;8.35;3.05;;;;;;;;;;4247779;33;20099;-71
2022/08/18 05:11:08;;;;;;;20.85;3.65;;;;;;;;;;4234609;33;20193;-72
2022/08/18 05:13:34;;;;;;;19.08;3.50;;;;;;;;;;4234339;33;20209;-71
2022/08/18 05:16:02;;;;;;;60.28;6.18;;;;;;;;;;4245842;33;20132;-70
2022/08/18 05:18:30;;;;;;;1.20;1.20;;;;;;;;;;4234085;33;20120;-70
2022/08/18 05:20:58;;;;;;;1.33;1.20;;;;;;;;;;4208673;33;20105;-70
2022/08/18 05:23:28;;;;;;;1.80;1.65;;;;;;;;;;4222761;33;20105;-68
2022/08/18 05:26:02;;;;;;;4.25;1.80;;;;;;;;;;4223135;33;20100;-69
2022/08/18 05:28:34;;;;;;;5.37;1.42;;;;;;;;;;4212252;33;20131;-68
2022/08/18 05:31:07;;;;;;;5.80;2.67;;;;;;;;;;4208223;33;20208;-70
2022/08/18 05:33:37;;;;;;;32.08;5.00;;;;;;;;;;4197901;33;20097;-69
2022/08/18 05:36:20;;;;;;;35.67;5.57;;;;;;;;;;4202622;33;20112;-67
2022/08/18 05:38:58;;;;;;;4.85;2.62;;;;;;;;;;4225266;33;20109;-68
2022/08/18 05:41:33;;;;;;;14.65;2.92;;;;;;;;;;4225784;33;20109;-68
2022/08/18 05:44:00;;;;;;;12.23;3.30;;;;;;;;;;4237714;33;20115;-68
2022/08/18 05:46:38;;;;;;;12.30;2.90;;;;;;;;;;4225582;33;20264;-68
2022/08/18 05:49:07;;;;;;;3.80;2.10;;;;;;;;;;4225497;33;20107;-70
2022/08/18 05:51:40;;;;;;;13.43;2.95;;;;;;;;;;4230524;33;20470;-66
2022/08/18 05:56:54;;;;;;;15.32;3.72;;;;;;;;;;4213178;33;20113;-67
2022/08/18 05:59:31;;;;;;;9.45;2.85;;;;;;;;;;4223941;33;20195;-66
2022/08/18 06:02:03;;;;;;;6.00;2.35;;;;;;;;;;4212247;33;20112;-69
2022/08/18 06:04:59;;;;;;;14.82;1.90;;;;;;;;;;4222801;33;20096;-71
2022/08/18 06:07:50;;;;;;;6.22;2.47;;;;;;;;;;4242276;33;20101;-70
2022/08/18 06:10:17;;;;;;;3.92;1.98;;;;;;;;;;4222537;33;20112;-70
2022/08/18 06:12:58;;;;;;;5.55;2.78;;;;;;;;;;4233822;33;20093;-70
2022/08/18 06:15:48;;;;;;;5.20;1.87;;;;;;;;;;4246972;33;20108;-71
2022/08/18 06:18:36;;;;;;;5.50;1.55;;;;;;;;;;4246828;33;20500;-70
2022/08/18 06:21:35;;;;;;;3.50;2.37;;;;;;;;;;4246784;33;20129;-70
2022/08/18 06:24:19;;;;;;;4.60;1.67;;;;;;;;;;4232866;33;20101;-70
2022/08/18 06:26:48;;;;;;;4.50;1.77;;;;;;;;;;4232951;33;20113;-70
2022/08/18 06:29:35;;;;;;;4.15;1.50;;;;;;;;;;4232562;33;20489;-70
2022/08/18 06:32:13;;;;;;;3.05;1.85;;;;;;;;;;4232754;33;20203;-70
2022/08/18 06:34:41;;;;;;;4.78;2.62;;;;;;;;;;4232463;33;20203;-70
2022/08/18 06:37:17;;;;;;;6.03;2.87;;;;;;;;;;4232885;33;20175;-70
2022/08/18 06:39:51;;;;;;;3.95;2.22;;;;;;;;;;4237239;33;20140;-70
2022/08/18 06:42:30;;;;;;;2.33;1.87;;;;;;;;;;4246705;33;20553;-70
2022/08/18 06:45:10;;;;;;;5.78;2.03;;;;;;;;;;4233865;33;20204;-70
2022/08/18 06:47:43;;;;;;;10.13;2.10;;;;;;;;;;4234046;33;20123;-67
2022/08/18 06:50:33;;;;;;;9.68;2.28;;;;;;;;;;4233323;33;20466;-67
2022/08/18 06:53:02;;;;;;;4.07;1.62;;;;;;;;;;4233478;33;20536;-70
2022/08/18 06:55:41;;;;;;;99.43;15.93;;;;;;;;;;4221496;33;20117;-69
2022/08/18 06:58:18;;;;;;;2.12;1.87;;;;;;;;;;4244595;33;20109;-69
2022/08/18 07:00:53;;;;;;;1.40;1.30;;;;;;;;;;4233231;33;20525;-69
2022/08/18 07:03:40;;;;;;;3.90;2.28;;;;;;;;;;4246373;33;20128;-69
2022/08/18 07:06:07;;;;;;;2.42;1.95;;;;;;;;;;4233374;33;20210;-69
2022/08/18 07:08:42;;;;;;;3.20;2.15;;;;;;;;;;4245293;33;20119;-70
2022/08/18 07:11:29;;;;;;;3.20;1.30;;;;;;;;;;4247758;33;20093;-69
2022/08/18 07:14:20;;;;;;;3.12;1.60;;;;;;;;;;4246824;33;20127;-70
2022/08/18 07:16:46;;;;;;;11.32;2.35;;;;;;;;;;4233799;33;20081;-70
2022/08/18 07:19:19;;;;;;;3.00;2.28;;;;;;;;;;4233669;33;20176;-69
2022/08/18 07:21:46;;;;;;;5.53;2.42;;;;;;;;;;4246473;33;20124;-70
2022/08/18 07:24:30;;;;;;;4.25;2.10;;;;;;;;;;4221255;33;20109;-69
2022/08/18 07:27:06;;;;;;;4.25;2.40;;;;;;;;;;4245162;33;20183;-68
2022/08/18 07:29:34;;;;;;;7.12;2.37;;;;;;;;;;4244589;33;20116;-68
2022/08/18 07:32:13;;;;;;;3.35;1.90;;;;;;;;;;4246088;33;20104;-68
2022/08/18 07:34:45;;;;;;;1.20;1.10;;;;;;;;;;4233129;33;20220;-67
2022/08/18 07:37:17;;;;;;;7.32;2.28;;;;;;;;;;4246210;33;20180;-68
2022/08/18 07:39:54;;;;;;;1.85;1.42;;;;;;;;;;4232879;33;20148;-67
2022/08/18 07:42:23;;;;;;;3.35;1.75;;;;;;;;;;4233166;33;20530;-67
2022/08/18 07:44:54;;;;;;;3.00;1.73;;;;;;;;;;4245705;33;20457;-67
2022/08/18 07:47:33;;;;;;;8.73;1.92;;;;;;;;;;4232883;33;20228;-67
2022/08/18 07:50:01;;;;;;;17.52;2.40;;;;;;;;;;4245786;33;20121;-66
2022/08/18 07:53:05;;;;;;;6.32;1.80;;;;;;;;;;4245938;33;20535;-67
2022/08/18 07:55:34;;;;;;;8.15;2.28;;;;;;;;;;4242922;33;20152;-67
2022/08/18 07:58:18;;;;;;;2.80;2.03;;;;;;;;;;4234118;33;20097;-68
2022/08/18 08:00:53;;;;;;;9.15;2.00;;;;;;;;;;4248156;33;20548;-67
2022/08/18 08:03:24;;;;;;;2.42;1.65;;;;;;;;;;4248317;33;20091;-67
2022/08/18 08:05:56;;;;;;;3.10;2.20;;;;;;;;;;4247852;33;20104;-67
2022/08/18 08:08:43;;;;;;;2.42;1.60;;;;;;;;;;4235065;33;20547;-67
2022/08/18 08:11:20;;;;;;;1.50;1.27;;;;;;;;;;4248125;33;20096;-70
2022/08/18 08:13:55;;;;;;;2.83;1.95;;;;;;;;;;4234984;33;20623;-66
2022/08/18 08:16:27;;;;;;;6.62;2.00;;;;;;;;;;4248117;33;20124;-67
2022/08/18 08:19:23;;;;;;;2.08;1.62;;;;;;;;;;4248198;33;20119;-66
2022/08/18 08:22:03;;;;;;;2.20;1.87;;;;;;;;;;4235373;33;20106;-67
2022/08/18 08:24:34;;;;;;;4.82;1.73;;;;;;;;;;4234770;33;20117;-66
2022/08/18 08:27:00;;;;;;;5.22;2.05;;;;;;;;;;4246365;33;20185;-67
2022/08/18 08:29:55;;;;;;;3.53;1.90;;;;;;;;;;4247663;33;20089;-67
2022/08/18 08:32:31;;;;;;;1.52;1.42;;;;;;;;;;4241578;33;20112;-68
2022/08/18 08:35:12;;;;;;;4.00;2.22;;;;;;;;;;4247888;33;20131;-67
2022/08/18 08:37:50;;;;;;;3.12;2.00;;;;;;;;;;4246580;33;20192;-67
2022/08/18 08:40:29;;;;;;;5.00;2.22;;;;;;;;;;4246026;33;20113;-67
2022/08/18 08:43:02;;;;;;;2.03;1.37;;;;;;;;;;4234828;33;20120;-68
2022/08/18 08:45:33;;;;;;;1.98;1.52;;;;;;;;;;4222934;33;20457;-67
2022/08/18 08:48:06;;;;;;;1.90;1.42;;;;;;;;;;4234600;33;20136;-67
2022/08/18 08:50:42;;;;;;;2.97;2.30;;;;;;;;;;4247684;33;20085;-67
2022/08/18 08:53:25;;;;;;;1.25;1.15;;;;;;;;;;4234948;33;20100;-67
2022/08/18 08:55:56;;;;;;;1.58;1.48;;;;;;;;;;4222986;33;20108;-68
2022/08/18 08:58:30;;;;;;;9.75;2.45;;;;;;;;;;4234869;33;20109;-68
2022/08/18 09:00:57;;;;;;;1.90;1.60;;;;;;;;;;4246690;33;20220;-67
2022/08/18 09:03:41;;;;;;;2.40;2.12;;;;;;;;;;4247561;33;20179;-67
2022/08/18 09:06:07;;;;;;;2.70;1.37;;;;;;;;;;4234710;33;20120;-67
2022/08/18 09:08:46;;;;;;;3.90;1.58;;;;;;;;;;4260362;33;20203;-67
2022/08/18 09:11:31;;;;;;;9.30;1.85;;;;;;;;;;4261799;33;20134;-68
2022/08/18 09:14:24;;;;;;;4.50;2.10;;;;;;;;;;4261613;33;20088;-67
2022/08/18 09:17:49;;;;;;;2.47;1.48;;;;;;;;;;4261550;33;20515;-66
2022/08/18 09:20:39;;;;;;;9.55;3.37;;;;;;;;;;4216821;33;20121;-67
2022/08/18 09:23:10;;;;;;;1.98;1.58;;;;;;;;;;4205165;34;20109;-67
2022/08/18 09:25:40;;;;;;;1.08;1.08;;;;;;;;;;4239805;33;20117;-67
2022/08/18 09:28:23;;;;;;;2.15;1.67;;;;;;;;;;4248259;33;20179;-66
2022/08/18 09:31:01;;;;;;;2.05;1.23;;;;;;;;;;4261340;33;20192;-66
2022/08/18 09:34:07;;;;;;;5.35;2.53;;;;;;;;;;4259998;33;20142;-67
2022/08/18 09:36:38;;;;;;;1.27;1.27;;;;;;;;;;4260952;33;20481;-67
2022/08/18 09:42:16;;;;;;;3.35;2.15;;;;;;;;;;4261263;33;20116;-65
2022/08/18 09:44:44;;;;;;;4.85;1.83;;;;;;;;;;4247963;33;20108;-67
2022/08/18 09:47:12;;;;;;;1.98;1.52;;;;;;;;;;4261387;33;20471;-68
2022/08/18 09:49:41;;;;;;;6.95;2.12;;;;;;;;;;4248014;33;20092;-67
2022/08/18 09:52:19;;;;;;;1.95;1.70;;;;;;;;;;4261140;33;20104;-68
2022/08/18 09:54:57;;;;;;;3.80;1.80;;;;;;;;;;4259793;33;20099;-68
2022/08/18 09:57:38;;;;;;;8.25;2.17;;;;;;;;;;4259993;33;20219;-69
2022/08/18 10:00:13;;;;;;;2.55;2.10;;;;;;;;;;4248023;33;20139;-68
2022/08/18 10:03:00;;;;;;;2.47;1.65;;;;;;;;;;4261087;33;20124;-68
2022/08/18 10:05:27;;;;;;;3.03;1.70;;;;;;;;;;4261099;33;20120;-67
2022/08/18 10:08:02;;;;;;;2.10;1.90;;;;;;;;;;4237299;33;20176;-69
2022/08/18 10:10:44;;;;;;;1.20;1.17;;;;;;;;;;4247098;33;20293;-69
2022/08/18 10:13:17;;;;;;;2.10;1.90;;;;;;;;;;4245566;33;20103;-69
2022/08/18 10:15:58;;;;;;;1.98;1.40;;;;;;;;;;4245450;33;20120;-66
2022/08/18 10:18:48;;;;;;;5.57;2.10;;;;;;;;;;4246940;33;20100;-67
2022/08/18 10:21:27;;;;;;;7.53;2.28;;;;;;;;;;4246300;33;20215;-67
2022/08/18 10:24:11;;;;;;;4.28;2.12;;;;;;;;;;4245285;33;20108;-67
2022/08/18 10:26:37;;;;;;;2.35;1.80;;;;;;;;;;4233678;33;20162;-69
2022/08/18 10:29:10;;;;;;;4.37;2.10;;;;;;;;;;4245271;33;20128;-70
2022/08/18 10:31:58;;;;;;;2.00;1.80;;;;;;;;;;4246740;33;20124;-68
2022/08/18 10:34:44;;;;;;;4.82;1.77;;;;;;;;;;4219844;33;20105;-70
2022/08/18 10:37:38;;;;;;;3.95;1.92;;;;;;;;;;4246740;33;20128;-69
2022/08/18 10:40:13;;;;;;;3.67;2.12;;;;;;;;;;4245281;33;20128;-67
2022/08/18 10:43:00;;;;;;;3.97;2.20;;;;;;;;;;4246016;33;20105;-67
2022/08/18 10:45:30;;;;;;;1.90;1.80;;;;;;;;;;4233296;33;20121;-68
2022/08/18 10:48:18;;;;;;;1.10;1.10;;;;;;;;;;4232743;33;20108;-68
2022/08/18 10:51:10;;;;;;;6.28;2.12;;;;;;;;;;4246567;33;20584;-67
2022/08/18 10:53:45;;;;;;;3.65;2.08;;;;;;;;;;4221562;33;20198;-67
2022/08/18 10:56:46;;;;;;;2.42;2.00;;;;;;;;;;4246724;33;20514;-67
2022/08/18 10:59:18;;;;;;;4.00;1.55;;;;;;;;;;4246471;33;20084;-71
2022/08/18 11:02:31;;;;;;;4.87;2.25;;;;;;;;;;4246506;33;20112;-68
2022/08/18 11:04:57;;;;;;;1.87;1.48;;;;;;;;;;4208293;33;20133;-68
2022/08/18 11:07:26;;;;;;;3.08;2.45;;;;;;;;;;4239906;33;20212;-68
2022/08/18 11:09:54;;;;;;;2.50;1.90;;;;;;;;;;4244345;33;20109;-68
2022/08/18 11:12:58;;;;;;;1.95;1.67;;;;;;;;;;4233510;33;20116;-68
2022/08/18 11:15:46;;;;;;;1.62;1.52;;;;;;;;;;4237340;33;20218;-68
2022/08/18 11:18:23;;;;;;;2.95;1.90;;;;;;;;;;4246366;33;20207;-68
2022/08/18 11:20:50;;;;;;;7.87;2.12;;;;;;;;;;4246202;33;20113;-68
2022/08/18 11:23:16;;;;;;;7.60;2.40;;;;;;;;;;4246263;33;20108;-67
2022/08/18 11:25:43;;;;;;;3.45;2.22;;;;;;;;;;4246112;33;20101;-66
2022/08/18 11:28:22;;;;;;;5.50;2.30;;;;;;;;;;4233131;33;20109;-67
2022/08/18 11:30:52;;;;;;;7.15;2.55;;;;;;;;;;4245955;33;20192;-66
2022/08/18 11:33:19;;;;;;;4.43;2.03;;;;;;;;;;4234516;33;20135;-66
2022/08/18 11:35:52;;;;;;;3.95;2.45;;;;;;;;;;4223099;33;20118;-66
2022/08/18 11:38:18;;;;;;;7.12;2.25;;;;;;;;;;4248271;33;20119;-67
2022/08/18 11:40:53;;;;;;;5.07;2.53;;;;;;;;;;4235119;33;20442;-68
2022/08/18 11:43:33;;;;;;;5.90;2.78;;;;;;;;;;4235215;33;20107;-69
2022/08/18 11:46:29;;;;;;;3.70;2.62;;;;;;;;;;4248316;33;20511;-67
2022/08/18 11:48:56;;;;;;;3.22;2.28;;;;;;;;;;4232678;33;20219;-68
2022/08/18 11:51:30;;;;;;;4.60;2.20;;;;;;;;;;4248088;33;20120;-68
2022/08/18 11:54:03;;;;;;;2.35;1.98;;;;;;;;;;4223404;33;20533;-68
2022/08/18 11:56:30;;;;;;;4.22;2.30;;;;;;;;;;4245917;33;20179;-68
2022/08/18 11:59:02;;;;;;;9.68;2.50;;;;;;;;;;4234825;33;20668;-67
2022/08/18 12:01:42;;;;;;;5.35;2.37;;;;;;;;;;4248412;33;20104;-68
2022/08/18 12:04:20;;;;;;;5.00;2.00;;;;;;;;;;4248083;33;20112;-67
2022/08/18 12:06:55;;;;;;;5.37;2.17;;;;;;;;;;4248016;33;20231;-69
2022/08/18 12:09:23;;;;;;;6.65;2.12;;;;;;;;;;4246828;33;20101;-68
2022/08/18 12:11:53;;;;;;;3.78;2.40;;;;;;;;;;4246515;33;20503;-68
2022/08/18 12:14:33;;;;;;;6.05;2.58;;;;;;;;;;4246536;33;20500;-67
2022/08/18 12:17:00;;;;;;;7.85;2.58;;;;;;;;;;4246435;33;20084;-68
2022/08/18 12:19:32;;;;;;;2.58;2.12;;;;;;;;;;4234785;33;20116;-68
2022/08/18 12:22:00;;;;;;;5.50;3.80;;;;;;;;;;4235422;33;20107;-68
2022/08/18 12:24:29;;;;;;;9.50;3.80;;;;;;;;;;4247732;33;20115;-68
2022/08/18 12:26:55;;;;;;;7.25;2.60;;;;;;;;;;4247669;33;20117;-68
2022/08/18 12:29:21;;;;;;;6.00;3.45;;;;;;;;;;4234885;33;20132;-68
2022/08/18 12:31:50;;;;;;;3.37;2.10;;;;;;;;;;4247745;33;20117;-67
2022/08/18 12:34:18;;;;;;;6.80;2.55;;;;;;;;;;4247694;33;20132;-68
2022/08/18 12:36:45;;;;;;;11.95;6.18;;;;;;;;;;4247680;33;20113;-68
2022/08/18 12:39:12;;;;;;;4.10;3.10;;;;;;;;;;4247678;33;20191;-68
2022/08/18 12:41:38;;;;;;;7.30;3.33;;;;;;;;;;4247534;33;20197;-68
2022/08/18 12:44:04;;;;;;;3.35;2.17;;;;;;;;;;4247482;33;20119;-68
2022/08/18 12:46:30;;;;;;;4.57;1.92;;;;;;;;;;4247511;33;20124;-68
2022/08/18 12:48:56;;;;;;;5.53;2.75;;;;;;;;;;4247532;33;20131;-70
2022/08/18 12:51:23;;;;;;;5.60;3.10;;;;;;;;;;4234623;33;20525;-69
2022/08/18 12:53:49;;;;;;;11.35;3.30;;;;;;;;;;4247589;33;20481;-71
2022/08/18 12:56:29;;;;;;;11.38;3.65;;;;;;;;;;4246207;33;20123;-71
2022/08/18 12:58:56;;;;;;;8.55;2.72;;;;;;;;;;4246306;33;20128;-68
2022/08/18 13:01:26;;;;;;;3.80;2.20;;;;;;;;;;4234241;33;20263;-68
2022/08/18 13:03:54;;;;;;;6.82;2.97;;;;;;;;;;4247335;33;20100;-68
2022/08/18 13:06:21;;;;;;;10.13;3.92;;;;;;;;;;4247258;33;20113;-69
2022/08/18 13:08:49;;;;;;;7.10;3.58;;;;;;;;;;4245946;33;20100;-68
2022/08/18 13:11:18;;;;;;;5.55;2.33;;;;;;;;;;4247344;33;20108;-68
2022/08/18 13:13:44;;;;;;;3.72;2.20;;;;;;;;;;4247578;33;20111;-68
2022/08/18 13:16:11;;;;;;;7.28;2.67;;;;;;;;;;4245902;33;20461;-68
2022/08/18 13:18:41;;;;;;;3.20;2.20;;;;;;;;;;4234454;33;20136;-68
2022/08/18 13:21:09;;;;;;;7.12;2.35;;;;;;;;;;4247462;33;20123;-66
2022/08/18 13:23:35;;;;;;;5.45;2.15;;;;;;;;;;4247256;33;20121;-68
2022/08/18 13:26:03;;;;;;;4.10;2.03;;;;;;;;;;4247053;33;20093;-66
2022/08/18 13:28:30;;;;;;;4.10;2.20;;;;;;;;;;4223115;33;20179;-65
2022/08/18 13:30:57;;;;;;;7.28;1.98;;;;;;;;;;4247216;33;20101;-66
2022/08/18 13:33:23;;;;;;;3.05;2.45;;;;;;;;;;4234221;33;20121;-66
2022/08/18 13:35:49;;;;;;;2.05;1.75;;;;;;;;;;4246841;33;20089;-65
2022/08/18 13:38:18;;;;;;;7.80;2.22;;;;;;;;;;4247293;33;20544;-65
2022/08/18 13:40:47;;;;;;;2.40;2.20;;;;;;;;;;4246990;33;20515;-67
2022/08/18 13:43:14;;;;;;;3.33;2.05;;;;;;;;;;4245757;33;20445;-67
2022/08/18 13:45:43;;;;;;;2.90;2.58;;;;;;;;;;4234231;33;20139;-69
2022/08/18 13:48:10;;;;;;;4.85;2.55;;;;;;;;;;4247048;33;20101;-68
2022/08/18 13:50:39;;;;;;;3.33;2.25;;;;;;;;;;4245402;33;20112;-70
2022/08/18 13:53:12;;;;;;;6.03;2.40;;;;;;;;;;4246994;33;20116;-67
2022/08/18 13:55:38;;;;;;;9.20;2.28;;;;;;;;;;4246291;33;20113;-64
2022/08/18 13:58:04;;;;;;;6.45;2.70;;;;;;;;;;4247134;33;20112;-64
2022/08/18 14:00:30;;;;;;;3.22;2.20;;;;;;;;;;4246986;33;20109;-64
2022/08/18 14:02:59;;;;;;;10.95;3.35;;;;;;;;;;4246974;33;20176;-65
2022/08/18 14:05:25;;;;;;;4.20;2.17;;;;;;;;;;4245453;33;20196;-67
2022/08/18 14:07:51;;;;;;;6.95;2.33;;;;;;;;;;4233808;33;20091;-69
2022/08/18 14:10:17;;;;;;;6.72;2.12;;;;;;;;;;4246785;33;20102;-67
2022/08/18 14:12:44;;;;;;;9.85;2.55;;;;;;;;;;4247120;33;20096;-70
2022/08/18 14:15:13;;;;;;;7.20;3.17;;;;;;;;;;4233747;33;20123;-69
2022/08/18 14:17:39;;;;;;;10.10;3.92;;;;;;;;;;4246903;33;20211;-69
2022/08/18 14:28:22;;;;;;;11.07;3.42;;;;;;;;;;4245818;33;20116;-69
2022/08/18 14:30:48;;;;;;;12.77;4.68;;;;;;;;;;4233829;33;20112;-69
2022/08/18 14:33:17;;;;;;;6.90;2.83;;;;;;;;;;4246760;33;20184;-69
2022/08/18 14:35:43;;;;;;;11.65;3.70;;;;;;;;;;4233709;33;20140;-69
2022/08/18 14:38:09;;;;;;;10.05;3.60;;;;;;;;;;4246981;33;20774;-69
2022/08/18 14:40:37;;;;;;;7.93;3.33;;;;;;;;;;4246692;33;20578;-66
2022/08/18 14:43:04;;;;;;;5.97;2.92;;;;;;;;;;4233312;33;20091;-74
2022/08/18 14:45:30;;;;;;;8.50;2.50;;;;;;;;;;4246122;33;20124;-65
2022/08/18 14:47:56;;;;;;;5.00;3.10;;;;;;;;;;4246465;33;20454;-65
2022/08/18 14:50:22;;;;;;;10.13;2.22;;;;;;;;;;4233670;33;20770;-65
2022/08/18 14:52:49;;;;;;;8.13;2.78;;;;;;;;;;4246468;33;20224;-69
2022/08/18 14:55:16;;;;;;;8.48;2.83;;;;;;;;;;4244813;33;20113;-65
2022/08/18 14:57:42;;;;;;;8.10;3.22;;;;;;;;;;4244811;33;20120;-68
2022/08/18 15:00:12;;;;;;;9.55;3.33;;;;;;;;;;4230453;33;20537;-69
2022/08/18 15:02:39;;;;;;;12.60;3.30;;;;;;;;;;4242334;33;20549;-68
2022/08/18 15:05:07;;;;;;;7.60;3.10;;;;;;;;;;4242027;33;20193;-68
2022/08/18 15:07:36;;;;;;;6.90;3.67;;;;;;;;;;4239644;33;20089;-66
2022/08/18 15:10:10;;;;;;;9.88;3.10;;;;;;;;;;4237795;33;20296;-69
2022/08/18 15:12:37;;;;;;;13.25;4.30;;;;;;;;;;4237523;33;20180;-67
2022/08/18 15:15:04;;;;;;;12.48;3.58;;;;;;;;;;4241254;33;20108;-71
2022/08/18 15:17:30;;;;;;;7.93;2.83;;;;;;;;;;4232999;33;20116;-70
2022/08/18 15:19:57;;;;;;;10.98;3.55;;;;;;;;;;4246168;33;20214;-70
2022/08/18 15:27:53;;;;;;;8.57;3.22;;;;;;;;;;4246082;33;20132;-70
2022/08/18 15:30:20;;;;;;;6.87;2.72;;;;;;;;;;4245699;33;20104;-71
2022/08/18 15:32:47;;;;;;;6.90;3.28;;;;;;;;;;4232729;33;20446;-72
2022/08/18 15:35:15;;;;;;;5.90;2.92;;;;;;;;;;4245950;33;20148;-71
2022/08/18 15:37:42;;;;;;;4.10;2.60;;;;;;;;;;4233205;33;20117;-72
2022/08/18 15:40:16;;;;;;;12.07;3.40;;;;;;;;;;4245777;33;20211;-72
2022/08/18 15:42:48;;;;;;;6.32;3.22;;;;;;;;;;4245915;33;20092;-71
2022/08/18 15:45:20;;;;;;;7.70;3.10;;;;;;;;;;4219644;33;20128;-71
2022/08/18 15:47:47;;;;;;;11.00;3.87;;;;;;;;;;4221203;33;20195;-71
2022/08/18 15:50:14;;;;;;;7.32;3.35;;;;;;;;;;4245458;33;20449;-72
2022/08/18 15:52:48;;;;;;;11.35;3.83;;;;;;;;;;4232552;33;20109;-71
2022/08/18 15:55:18;;;;;;;6.55;3.03;;;;;;;;;;4232545;33;20097;-70
2022/08/18 15:57:45;;;;;;;27.60;5.50;;;;;;;;;;4232639;33;20112;-71
2022/08/18 16:00:11;;;;;;;10.02;3.15;;;;;;;;;;4230633;33;20188;-72
2022/08/18 16:02:38;;;;;;;9.30;3.03;;;;;;;;;;4244360;33;20180;-72
2022/08/18 16:05:06;;;;;;;6.37;2.90;;;;;;;;;;4232182;33;20096;-72
2022/08/18 16:07:32;;;;;;;22.58;3.40;;;;;;;;;;4245500;33;20119;-71
2022/08/18 16:09:58;;;;;;;9.98;3.08;;;;;;;;;;4244273;33;20105;-71
2022/08/18 16:12:24;;;;;;;6.37;3.20;;;;;;;;;;4245755;33;20121;-71